sensor_id;sensor_type;location;lat;lon;timestamp;temperature;humidity
16060;DHT22;8134;49.552;7.632;2023-05-14T06:06:49;10.60;99.90
16060;DHT22;8134;49.552;7.632;2023-05-14T06:09:14;10.80;99.90
16060;DHT22;8134;49.552;7.632;2023-05-14T06:11:40;11.00;99.90
16060;DHT22;8134;49.552;7.632;2023-05-14T06:14:06;11.10;99.90
16060;DHT22;8134;49.552;7.632;2023-05-14T06:16:31;11.40;99.90
16060;DHT22;8134;49.552;7.632;2023-05-14T06:18:57;11.60;99.90
16060;DHT22;8134;49.552;7.632;2023-05-14T06:21:22;11.70;99.90
16060;DHT22;8134;49.552;7.632;2023-05-14T06:23:48;11.60;99.90
16060;DHT22;8134;49.552;7.632;2023-05-14T06:26:13;11.60;99.90
16060;DHT22;8134;49.552;7.632;2023-05-14T06:28:39;11.70;99.90
16060;DHT22;8134;49.552;7.632;2023-05-14T06:31:04;11.80;99.90
16060;DHT22;8134;49.552;7.632;2023-05-14T06:33:30;11.80;99.90
16060;DHT22;8134;49.552;7.632;2023-05-14T06:35:59;12.00;99.90
16060;DHT22;8134;49.552;7.632;2023-05-14T06:38:25;12.10;99.90
16060;DHT22;8134;49.552;7.632;2023-05-14T06:40:50;12.20;99.90
16060;DHT22;8134;49.552;7.632;2023-05-14T06:43:17;12.40;99.90
16060;DHT22;8134;49.552;7.632;2023-05-14T06:45:43;12.60;99.90
16060;DHT22;8134;49.552;7.632;2023-05-14T06:48:08;12.70;99.90
16060;DHT22;8134;49.552;7.632;2023-05-14T06:50:34;13.00;99.90
16060;DHT22;8134;49.552;7.632;2023-05-14T06:53:00;13.20;99.90
16060;DHT22;8134;49.552;7.632;2023-05-14T06:55:25;13.30;99.90
16060;DHT22;8134;49.552;7.632;2023-05-14T06:57:51;13.20;99.90
16060;DHT22;8134;49.552;7.632;2023-05-14T07:00:16;13.10;99.90
16060;DHT22;8134;49.552;7.632;2023-05-14T07:02:42;13.10;99.90
16060;DHT22;8134;49.552;7.632;2023-05-14T07:05:07;13.20;99.90
16060;DHT22;8134;49.552;7.632;2023-05-14T07:07:33;13.30;99.90
16060;DHT22;8134;49.552;7.632;2023-05-14T07:09:58;13.40;99.90
16060;DHT22;8134;49.552;7.632;2023-05-14T07:12:24;13.40;99.90
16060;DHT22;8134;49.552;7.632;2023-05-14T07:14:50;13.40;99.90
16060;DHT22;8134;49.552;7.632;2023-05-14T07:17:15;13.40;99.90
16060;DHT22;8134;49.552;7.632;2023-05-14T07:19:41;13.50;99.90
16060;DHT22;8134;49.552;7.632;2023-05-14T07:22:06;13.70;99.90
16060;DHT22;8134;49.552;7.632;2023-05-14T07:24:31;13.90;99.90
16060;DHT22;8134;49.552;7.632;2023-05-14T07:26:57;14.10;99.90
16060;DHT22;8134;49.552;7.632;2023-05-14T07:29:23;14.40;99.90
16060;DHT22;8134;49.552;7.632;2023-05-14T07:31:49;14.50;99.90
16060;DHT22;8134;49.552;7.632;2023-05-14T07:34:15;14.70;99.90
16060;DHT22;8134;49.552;7.632;2023-05-14T07:36:41;14.80;99.90
16060;DHT22;8134;49.552;7.632;2023-05-14T07:39:06;14.80;99.90
16060;DHT22;8134;49.552;7.632;2023-05-14T07:41:32;14.90;99.90
16060;DHT22;8134;49.552;7.632;2023-05-14T07:43:58;15.00;99.90
16060;DHT22;8134;49.552;7.632;2023-05-14T07:46:23;15.10;99.90
16060;DHT22;8134;49.552;7.632;2023-05-14T07:48:50;15.20;99.90
16060;DHT22;8134;49.552;7.632;2023-05-14T07:51:15;15.30;99.90
16060;DHT22;8134;49.552;7.632;2023-05-14T07:53:41;15.30;99.90
16060;DHT22;8134;49.552;7.632;2023-05-14T07:56:06;15.40;99.90
16060;DHT22;8134;49.552;7.632;2023-05-14T07:58:32;15.40;99.90
16060;DHT22;8134;49.552;7.632;2023-05-14T08:00:59;15.40;99.90
16060;DHT22;8134;49.552;7.632;2023-05-14T08:03:25;15.40;99.90
16060;DHT22;8134;49.552;7.632;2023-05-14T08:05:51;15.50;99.90
16060;DHT22;8134;49.552;7.632;2023-05-14T08:21:29;15.30;99.90
16060;DHT22;8134;49.552;7.632;2023-05-14T08:23:55;15.40;99.90
16060;DHT22;8134;49.552;7.632;2023-05-14T08:26:21;15.50;99.90
16060;DHT22;8134;49.552;7.632;2023-05-14T08:28:47;15.70;99.90
16060;DHT22;8134;49.552;7.632;2023-05-14T08:31:12;15.80;99.90
16060;DHT22;8134;49.552;7.632;2023-05-14T08:33:38;16.00;99.90
16060;DHT22;8134;49.552;7.632;2023-05-14T08:36:04;16.10;99.90
16060;DHT22;8134;49.552;7.632;2023-05-14T08:38:30;16.30;99.90
16060;DHT22;8134;49.552;7.632;2023-05-14T08:40:56;16.40;99.90
16060;DHT22;8134;49.552;7.632;2023-05-14T08:43:25;16.40;99.90
16060;DHT22;8134;49.552;7.632;2023-05-14T08:45:52;16.40;99.90
16060;DHT22;8134;49.552;7.632;2023-05-14T08:48:19;16.40;99.90
16060;DHT22;8134;49.552;7.632;2023-05-14T08:50:47;16.40;99.90
16060;DHT22;8134;49.552;7.632;2023-05-14T08:53:12;16.40;99.90
16060;DHT22;8134;49.552;7.632;2023-05-14T08:55:38;16.40;99.90
16060;DHT22;8134;49.552;7.632;2023-05-14T08:58:03;16.50;99.90
16060;DHT22;8134;49.552;7.632;2023-05-14T09:00:29;16.50;99.90
16060;DHT22;8134;49.552;7.632;2023-05-14T09:02:55;16.60;99.90
16060;DHT22;8134;49.552;7.632;2023-05-14T09:05:21;16.70;99.90
16060;DHT22;8134;49.552;7.632;2023-05-14T09:07:47;16.70;99.90
16060;DHT22;8134;49.552;7.632;2023-05-14T09:10:13;16.80;99.90
16060;DHT22;8134;49.552;7.632;2023-05-14T09:12:39;16.90;99.90
16060;DHT22;8134;49.552;7.632;2023-05-14T09:15:05;16.90;99.90
16060;DHT22;8134;49.552;7.632;2023-05-14T09:17:31;17.10;99.90
16060;DHT22;8134;49.552;7.632;2023-05-14T09:19:57;17.10;99.90
16060;DHT22;8134;49.552;7.632;2023-05-14T09:22:23;17.20;99.50
16060;DHT22;8134;49.552;7.632;2023-05-14T09:25:05;17.20;99.00
16060;DHT22;8134;49.552;7.632;2023-05-14T09:27:31;17.20;99.70
16060;DHT22;8134;49.552;7.632;2023-05-14T09:32:36;17.30;98.70
16060;DHT22;8134;49.552;7.632;2023-05-14T09:35:36;17.50;99.70
16060;DHT22;8134;49.552;7.632;2023-05-14T09:37:54;17.60;99.60
16060;DHT22;8134;49.552;7.632;2023-05-14T09:40:20;17.50;98.70
16060;DHT22;8134;49.552;7.632;2023-05-14T09:42:46;17.40;98.40
16060;DHT22;8134;49.552;7.632;2023-05-14T09:45:12;17.30;97.90
16060;DHT22;8134;49.552;7.632;2023-05-14T09:47:38;17.40;98.10
16060;DHT22;8134;49.552;7.632;2023-05-14T09:50:04;17.40;97.60
16060;DHT22;8134;49.552;7.632;2023-05-14T09:52:30;17.50;97.50
16060;DHT22;8134;49.552;7.632;2023-05-14T09:54:55;17.60;97.40
16060;DHT22;8134;49.552;7.632;2023-05-14T09:57:21;17.60;96.90
16060;DHT22;8134;49.552;7.632;2023-05-14T09:59:47;17.40;96.70
16060;DHT22;8134;49.552;7.632;2023-05-14T10:02:20;17.20;96.50
16060;DHT22;8134;49.552;7.632;2023-05-14T10:04:47;17.20;97.40
16060;DHT22;8134;49.552;7.632;2023-05-14T10:07:13;17.40;97.70
16060;DHT22;8134;49.552;7.632;2023-05-14T10:09:41;17.50;97.70
16060;DHT22;8134;49.552;7.632;2023-05-14T10:12:08;17.60;96.90
16060;DHT22;8134;49.552;7.632;2023-05-14T10:14:44;17.70;96.90
16060;DHT22;8134;49.552;7.632;2023-05-14T10:17:11;17.70;97.40
16060;DHT22;8134;49.552;7.632;2023-05-14T10:19:44;17.70;97.20
16060;DHT22;8134;49.552;7.632;2023-05-14T10:22:11;17.60;96.90
16060;DHT22;8134;49.552;7.632;2023-05-14T10:24:39;17.50;96.80
16060;DHT22;8134;49.552;7.632;2023-05-14T10:27:05;17.50;97.40
16060;DHT22;8134;49.552;7.632;2023-05-14T10:29:34;17.60;97.70
16060;DHT22;8134;49.552;7.632;2023-05-14T10:32:04;17.70;97.70
16060;DHT22;8134;49.552;7.632;2023-05-14T10:34:38;17.80;97.20
16060;DHT22;8134;49.552;7.632;2023-05-14T10:37:06;17.90;97.00
16060;DHT22;8134;49.552;7.632;2023-05-14T10:42:10;18.10;95.80
16060;DHT22;8134;49.552;7.632;2023-05-14T10:44:36;18.20;96.10
16060;DHT22;8134;49.552;7.632;2023-05-14T10:47:04;18.20;96.10
16060;DHT22;8134;49.552;7.632;2023-05-14T10:49:29;18.20;95.60
16060;DHT22;8134;49.552;7.632;2023-05-14T10:51:55;18.20;95.80
16060;DHT22;8134;49.552;7.632;2023-05-14T10:54:21;18.30;96.40
16060;DHT22;8134;49.552;7.632;2023-05-14T10:56:48;18.30;95.90
16060;DHT22;8134;49.552;7.632;2023-05-14T10:59:15;18.40;95.60
16060;DHT22;8134;49.552;7.632;2023-05-14T11:01:40;18.60;94.70
16060;DHT22;8134;49.552;7.632;2023-05-14T11:04:06;18.60;94.70
16060;DHT22;8134;49.552;7.632;2023-05-14T11:06:31;18.50;94.60
16060;DHT22;8134;49.552;7.632;2023-05-14T11:08:58;18.50;95.00
16060;DHT22;8134;49.552;7.632;2023-05-14T11:11:25;18.40;94.80
16060;DHT22;8134;49.552;7.632;2023-05-14T11:13:52;18.50;94.60
16060;DHT22;8134;49.552;7.632;2023-05-14T11:16:19;18.60;94.40
16060;DHT22;8134;49.552;7.632;2023-05-14T11:18:46;18.60;93.40
16060;DHT22;8134;49.552;7.632;2023-05-14T11:21:12;18.60;93.80
16060;DHT22;8134;49.552;7.632;2023-05-14T11:23:37;18.60;94.60
16060;DHT22;8134;49.552;7.632;2023-05-14T11:26:03;18.60;93.60
16060;DHT22;8134;49.552;7.632;2023-05-14T11:28:28;18.70;94.00
16060;DHT22;8134;49.552;7.632;2023-05-14T11:30:54;18.90;94.00
16060;DHT22;8134;49.552;7.632;2023-05-14T11:33:20;19.10;93.60
16060;DHT22;8134;49.552;7.632;2023-05-14T11:35:45;19.20;92.30
16060;DHT22;8134;49.552;7.632;2023-05-14T11:38:18;19.30;92.40
16060;DHT22;8134;49.552;7.632;2023-05-14T11:40:51;19.30;91.40
16060;DHT22;8134;49.552;7.632;2023-05-14T11:43:21;19.40;92.90
16060;DHT22;8134;49.552;7.632;2023-05-14T11:45:50;19.40;91.90
16060;DHT22;8134;49.552;7.632;2023-05-14T11:48:16;19.50;91.80
16060;DHT22;8134;49.552;7.632;2023-05-14T11:50:46;19.50;91.90
16060;DHT22;8134;49.552;7.632;2023-05-14T11:53:15;19.60;92.20
16060;DHT22;8134;49.552;7.632;2023-05-14T11:55:40;19.60;92.00
16060;DHT22;8134;49.552;7.632;2023-05-14T11:58:06;19.80;92.10
16060;DHT22;8134;49.552;7.632;2023-05-14T12:00:31;19.90;92.70
16060;DHT22;8134;49.552;7.632;2023-05-14T12:02:58;19.90;91.30
16060;DHT22;8134;49.552;7.632;2023-05-14T12:05:23;19.90;91.20
16060;DHT22;8134;49.552;7.632;2023-05-14T12:07:49;19.90;90.80
16060;DHT22;8134;49.552;7.632;2023-05-14T12:10:15;19.80;91.30
16060;DHT22;8134;49.552;7.632;2023-05-14T12:12:43;19.80;92.40
16060;DHT22;8134;49.552;7.632;2023-05-14T12:15:09;19.60;90.60
16060;DHT22;8134;49.552;7.632;2023-05-14T12:17:36;19.70;92.20
16060;DHT22;8134;49.552;7.632;2023-05-14T12:20:02;19.70;91.20
16060;DHT22;8134;49.552;7.632;2023-05-14T12:22:28;19.80;92.00
16060;DHT22;8134;49.552;7.632;2023-05-14T12:24:54;19.70;90.30
16060;DHT22;8134;49.552;7.632;2023-05-14T12:27:23;19.60;91.00
16060;DHT22;8134;49.552;7.632;2023-05-14T12:29:58;19.60;90.40
16060;DHT22;8134;49.552;7.632;2023-05-14T12:32:24;19.80;91.10
16060;DHT22;8134;49.552;7.632;2023-05-14T12:34:50;19.80;88.20
16060;DHT22;8134;49.552;7.632;2023-05-14T12:37:15;19.80;90.40
16060;DHT22;8134;49.552;7.632;2023-05-14T12:39:42;19.80;89.80
16060;DHT22;8134;49.552;7.632;2023-05-14T12:42:08;19.70;89.20
16060;DHT22;8134;49.552;7.632;2023-05-14T12:44:33;19.80;90.20
16060;DHT22;8134;49.552;7.632;2023-05-14T12:46:59;20.00;91.10
16060;DHT22;8134;49.552;7.632;2023-05-14T12:49:24;20.00;90.50
16060;DHT22;8134;49.552;7.632;2023-05-14T12:51:50;20.00;90.40
16060;DHT22;8134;49.552;7.632;2023-05-14T12:54:15;20.10;91.10
16060;DHT22;8134;49.552;7.632;2023-05-14T12:56:41;20.30;90.90
16060;DHT22;8134;49.552;7.632;2023-05-14T12:59:07;20.50;90.80
16060;DHT22;8134;49.552;7.632;2023-05-14T13:01:33;20.40;87.80
16060;DHT22;8134;49.552;7.632;2023-05-14T13:03:59;19.90;87.40
16060;DHT22;8134;49.552;7.632;2023-05-14T13:06:24;20.00;87.70
16060;DHT22;8134;49.552;7.632;2023-05-14T13:08:50;20.20;89.60
16060;DHT22;8134;49.552;7.632;2023-05-14T13:11:15;20.60;90.60
16060;DHT22;8134;49.552;7.632;2023-05-14T13:13:41;20.70;90.00
16060;DHT22;8134;49.552;7.632;2023-05-14T13:16:06;20.40;89.40
16060;DHT22;8134;49.552;7.632;2023-05-14T13:18:32;20.30;90.00
16060;DHT22;8134;49.552;7.632;2023-05-14T13:20:57;20.30;90.50
16060;DHT22;8134;49.552;7.632;2023-05-14T13:23:23;20.50;89.20
16060;DHT22;8134;49.552;7.632;2023-05-14T13:25:48;20.50;88.40
16060;DHT22;8134;49.552;7.632;2023-05-14T13:28:14;20.40;89.90
16060;DHT22;8134;49.552;7.632;2023-05-14T13:30:39;20.20;89.70
16060;DHT22;8134;49.552;7.632;2023-05-14T13:33:05;20.10;90.40
16060;DHT22;8134;49.552;7.632;2023-05-14T13:35:30;20.10;90.20
16060;DHT22;8134;49.552;7.632;2023-05-14T13:37:56;20.40;90.90
16060;DHT22;8134;49.552;7.632;2023-05-14T13:40:21;20.50;88.90
16060;DHT22;8134;49.552;7.632;2023-05-14T13:42:47;20.60;88.50
16060;DHT22;8134;49.552;7.632;2023-05-14T13:45:12;20.50;88.20
16060;DHT22;8134;49.552;7.632;2023-05-14T13:47:38;20.50;89.50
16060;DHT22;8134;49.552;7.632;2023-05-14T13:50:03;20.50;89.90
16060;DHT22;8134;49.552;7.632;2023-05-14T13:52:29;20.20;89.00
16060;DHT22;8134;49.552;7.632;2023-05-14T13:54:55;19.90;89.30
16060;DHT22;8134;49.552;7.632;2023-05-14T13:57:21;19.80;90.00
16060;DHT22;8134;49.552;7.632;2023-05-14T13:59:47;19.80;90.10
16060;DHT22;8134;49.552;7.632;2023-05-14T14:02:13;20.00;89.40
16060;DHT22;8134;49.552;7.632;2023-05-14T14:04:38;20.90;89.20
16060;DHT22;8134;49.552;7.632;2023-05-14T14:07:04;22.10;84.90
16060;DHT22;8134;49.552;7.632;2023-05-14T14:09:29;21.30;84.90
16060;DHT22;8134;49.552;7.632;2023-05-14T14:11:59;20.70;86.60
16060;DHT22;8134;49.552;7.632;2023-05-14T14:14:25;20.40;86.60
16060;DHT22;8134;49.552;7.632;2023-05-14T14:16:50;20.80;86.90
16060;DHT22;8134;49.552;7.632;2023-05-14T14:19:16;20.70;87.00
16060;DHT22;8134;49.552;7.632;2023-05-14T14:21:41;20.70;89.60
16060;DHT22;8134;49.552;7.632;2023-05-14T14:24:07;20.50;87.90
16060;DHT22;8134;49.552;7.632;2023-05-14T14:26:32;20.40;82.60
16060;DHT22;8134;49.552;7.632;2023-05-14T14:28:58;20.20;80.10
16060;DHT22;8134;49.552;7.632;2023-05-14T14:31:23;20.00;80.30
16060;DHT22;8134;49.552;7.632;2023-05-14T14:33:49;20.20;81.30
16060;DHT22;8134;49.552;7.632;2023-05-14T14:36:14;20.20;81.10
16060;DHT22;8134;49.552;7.632;2023-05-14T14:38:40;20.10;80.70
16060;DHT22;8134;49.552;7.632;2023-05-14T14:41:05;20.00;81.30
16060;DHT22;8134;49.552;7.632;2023-05-14T14:43:36;19.90;81.50
16060;DHT22;8134;49.552;7.632;2023-05-14T14:46:01;19.90;82.70
16060;DHT22;8134;49.552;7.632;2023-05-14T14:48:27;19.80;83.60
16060;DHT22;8134;49.552;7.632;2023-05-14T14:50:55;19.80;84.10
16060;DHT22;8134;49.552;7.632;2023-05-14T14:53:21;19.80;83.80
16060;DHT22;8134;49.552;7.632;2023-05-14T14:55:47;19.70;81.10
16060;DHT22;8134;49.552;7.632;2023-05-14T14:58:12;19.60;82.20
16060;DHT22;8134;49.552;7.632;2023-05-14T15:00:38;19.70;83.90
16060;DHT22;8134;49.552;7.632;2023-05-14T15:03:12;19.80;83.60
16060;DHT22;8134;49.552;7.632;2023-05-14T15:05:44;19.90;85.20
16060;DHT22;8134;49.552;7.632;2023-05-14T15:08:10;19.90;85.30
16060;DHT22;8134;49.552;7.632;2023-05-14T15:10:35;20.10;85.70
16060;DHT22;8134;49.552;7.632;2023-05-14T15:13:03;20.20;84.80
16060;DHT22;8134;49.552;7.632;2023-05-14T15:15:29;20.30;85.70
16060;DHT22;8134;49.552;7.632;2023-05-14T15:17:54;20.30;82.40
16060;DHT22;8134;49.552;7.632;2023-05-14T15:20:20;20.20;84.00
16060;DHT22;8134;49.552;7.632;2023-05-14T15:22:45;20.10;84.70
16060;DHT22;8134;49.552;7.632;2023-05-14T15:25:11;20.20;84.30
16060;DHT22;8134;49.552;7.632;2023-05-14T15:27:36;20.40;85.10
16060;DHT22;8134;49.552;7.632;2023-05-14T15:30:02;20.60;83.70
16060;DHT22;8134;49.552;7.632;2023-05-14T15:32:28;20.50;84.40
16060;DHT22;8134;49.552;7.632;2023-05-14T15:34:54;20.70;84.40
16060;DHT22;8134;49.552;7.632;2023-05-14T15:37:22;20.80;83.80
16060;DHT22;8134;49.552;7.632;2023-05-14T15:39:47;20.80;84.60
16060;DHT22;8134;49.552;7.632;2023-05-14T15:42:13;21.00;84.80
16060;DHT22;8134;49.552;7.632;2023-05-14T15:44:39;21.00;84.90
16060;DHT22;8134;49.552;7.632;2023-05-14T15:47:04;20.90;84.10
16060;DHT22;8134;49.552;7.632;2023-05-14T15:49:30;20.60;85.10
16060;DHT22;8134;49.552;7.632;2023-05-14T15:51:55;20.40;85.20
16060;DHT22;8134;49.552;7.632;2023-05-14T15:54:21;20.60;86.30
16060;DHT22;8134;49.552;7.632;2023-05-14T15:56:47;20.80;86.50
16060;DHT22;8134;49.552;7.632;2023-05-14T15:59:13;20.90;84.50
16060;DHT22;8134;49.552;7.632;2023-05-14T16:01:39;20.80;84.00
16060;DHT22;8134;49.552;7.632;2023-05-14T16:04:04;20.80;86.30
16060;DHT22;8134;49.552;7.632;2023-05-14T16:06:30;21.00;85.10
16060;DHT22;8134;49.552;7.632;2023-05-14T16:08:56;21.30;85.40
16060;DHT22;8134;49.552;7.632;2023-05-14T16:11:21;21.10;84.20
16060;DHT22;8134;49.552;7.632;2023-05-14T16:13:47;21.20;84.10
16060;DHT22;8134;49.552;7.632;2023-05-14T16:16:12;21.10;86.40
16060;DHT22;8134;49.552;7.632;2023-05-14T16:18:38;21.00;85.30
16060;DHT22;8134;49.552;7.632;2023-05-14T16:21:04;21.20;87.60
16060;DHT22;8134;49.552;7.632;2023-05-14T16:23:30;21.30;87.70
16060;DHT22;8134;49.552;7.632;2023-05-14T16:25:55;21.40;87.70
16060;DHT22;8134;49.552;7.632;2023-05-14T16:28:22;21.70;87.40
16060;DHT22;8134;49.552;7.632;2023-05-14T16:30:47;21.80;84.60
16060;DHT22;8134;49.552;7.632;2023-05-14T16:33:13;21.70;85.30
16060;DHT22;8134;49.552;7.632;2023-05-14T16:35:38;21.50;85.70
16060;DHT22;8134;49.552;7.632;2023-05-14T16:38:04;21.60;85.50
16060;DHT22;8134;49.552;7.632;2023-05-14T16:40:29;21.20;85.30
16060;DHT22;8134;49.552;7.632;2023-05-14T16:42:55;20.90;86.70
16060;DHT22;8134;49.552;7.632;2023-05-14T16:45:20;20.80;87.60
16060;DHT22;8134;49.552;7.632;2023-05-14T16:47:46;20.70;87.70
16060;DHT22;8134;49.552;7.632;2023-05-14T16:50:11;20.60;87.90
16060;DHT22;8134;49.552;7.632;2023-05-14T16:52:37;20.40;90.10
16060;DHT22;8134;49.552;7.632;2023-05-14T16:55:02;20.30;89.90
16060;DHT22;8134;49.552;7.632;2023-05-14T16:57:28;20.00;89.60
16060;DHT22;8134;49.552;7.632;2023-05-14T16:59:54;19.80;90.00
16060;DHT22;8134;49.552;7.632;2023-05-14T17:02:19;19.70;90.20
16060;DHT22;8134;49.552;7.632;2023-05-14T17:04:45;19.60;90.50
16060;DHT22;8134;49.552;7.632;2023-05-14T17:07:10;19.60;90.80
16060;DHT22;8134;49.552;7.632;2023-05-14T17:09:36;19.50;91.20
16060;DHT22;8134;49.552;7.632;2023-05-14T17:12:01;19.30;90.40
16060;DHT22;8134;49.552;7.632;2023-05-14T17:14:27;19.20;91.10
16060;DHT22;8134;49.552;7.632;2023-05-14T17:16:53;19.10;91.00
16060;DHT22;8134;49.552;7.632;2023-05-14T17:19:18;18.90;91.10
16060;DHT22;8134;49.552;7.632;2023-05-14T17:21:44;18.90;91.30
16060;DHT22;8134;49.552;7.632;2023-05-14T17:24:09;18.90;91.30
16060;DHT22;8134;49.552;7.632;2023-05-14T17:26:35;18.90;91.40
16060;DHT22;8134;49.552;7.632;2023-05-14T17:29:02;18.90;91.40
16060;DHT22;8134;49.552;7.632;2023-05-14T17:31:27;18.80;91.10
16060;DHT22;8134;49.552;7.632;2023-05-14T17:36:56;18.60;91.00
16060;DHT22;8134;49.552;7.632;2023-05-14T17:39:21;18.50;91.00
16060;DHT22;8134;49.552;7.632;2023-05-14T17:41:47;18.30;92.00
16060;DHT22;8134;49.552;7.632;2023-05-14T17:44:12;18.20;94.60
16060;DHT22;8134;49.552;7.632;2023-05-14T17:46:38;17.30;99.10
16060;DHT22;8134;49.552;7.632;2023-05-14T17:49:03;16.40;99.90
16060;DHT22;8134;49.552;7.632;2023-05-14T17:51:29;15.80;99.90
16060;DHT22;8134;49.552;7.632;2023-05-14T17:53:55;15.60;99.90
16060;DHT22;8134;49.552;7.632;2023-05-14T17:56:21;15.60;99.90
16060;DHT22;8134;49.552;7.632;2023-05-14T17:58:47;15.70;99.90
16060;DHT22;8134;49.552;7.632;2023-05-14T18:01:13;15.80;99.90
16060;DHT22;8134;49.552;7.632;2023-05-14T18:03:38;15.80;99.90
16060;DHT22;8134;49.552;7.632;2023-05-14T18:06:04;15.80;99.90
16060;DHT22;8134;49.552;7.632;2023-05-14T18:08:29;15.30;99.90
16060;DHT22;8134;49.552;7.632;2023-05-14T18:10:55;15.30;99.90
16060;DHT22;8134;49.552;7.632;2023-05-14T18:13:22;15.20;99.90
16060;DHT22;8134;49.552;7.632;2023-05-14T18:15:47;15.10;99.90
16060;DHT22;8134;49.552;7.632;2023-05-14T18:18:15;15.00;99.90
16060;DHT22;8134;49.552;7.632;2023-05-14T18:20:42;15.00;99.90
16060;DHT22;8134;49.552;7.632;2023-05-14T18:23:08;14.90;99.90
16060;DHT22;8134;49.552;7.632;2023-05-14T18:25:33;14.90;99.90
16060;DHT22;8134;49.552;7.632;2023-05-14T18:27:59;15.10;99.90
16060;DHT22;8134;49.552;7.632;2023-05-14T18:30:24;15.20;99.90
16060;DHT22;8134;49.552;7.632;2023-05-14T18:32:50;15.20;99.90
16060;DHT22;8134;49.552;7.632;2023-05-14T18:35:15;15.10;99.90
16060;DHT22;8134;49.552;7.632;2023-05-14T18:37:41;15.10;99.90
16060;DHT22;8134;49.552;7.632;2023-05-14T18:40:07;15.10;99.90
16060;DHT22;8134;49.552;7.632;2023-05-14T18:42:33;15.10;99.90
16060;DHT22;8134;49.552;7.632;2023-05-14T18:44:58;15.10;99.90
16060;DHT22;8134;49.552;7.632;2023-05-14T18:47:24;15.10;99.90
16060;DHT22;8134;49.552;7.632;2023-05-14T18:49:49;15.00;99.90
16060;DHT22;8134;49.552;7.632;2023-05-14T18:52:19;15.10;99.90
16060;DHT22;8134;49.552;7.632;2023-05-14T18:54:45;15.10;99.90
16060;DHT22;8134;49.552;7.632;2023-05-14T18:57:11;15.00;99.90
16060;DHT22;8134;49.552;7.632;2023-05-14T18:59:37;15.00;99.90
16060;DHT22;8134;49.552;7.632;2023-05-14T19:02:03;15.00;99.90
16060;DHT22;8134;49.552;7.632;2023-05-14T19:04:28;15.00;99.90
16060;DHT22;8134;49.552;7.632;2023-05-14T19:06:54;15.00;99.90
16060;DHT22;8134;49.552;7.632;2023-05-14T19:09:20;14.90;99.90
16060;DHT22;8134;49.552;7.632;2023-05-14T19:11:46;14.90;99.90
16060;DHT22;8134;49.552;7.632;2023-05-14T19:14:11;14.90;99.90
16060;DHT22;8134;49.552;7.632;2023-05-14T19:16:36;14.90;99.90
16060;DHT22;8134;49.552;7.632;2023-05-14T19:19:02;14.80;99.90
16060;DHT22;8134;49.552;7.632;2023-05-14T19:21:27;14.80;99.90
16060;DHT22;8134;49.552;7.632;2023-05-14T19:23:53;14.80;99.90
16060;DHT22;8134;49.552;7.632;2023-05-14T19:26:19;14.80;99.90
16060;DHT22;8134;49.552;7.632;2023-05-14T19:28:45;14.80;99.90
16060;DHT22;8134;49.552;7.632;2023-05-14T19:31:11;14.70;99.90
16060;DHT22;8134;49.552;7.632;2023-05-14T19:33:36;14.70;99.90
16060;DHT22;8134;49.552;7.632;2023-05-14T19:39:05;14.60;99.90
16060;DHT22;8134;49.552;7.632;2023-05-14T19:41:31;14.60;99.90
16060;DHT22;8134;49.552;7.632;2023-05-14T19:43:56;14.60;99.90
16060;DHT22;8134;49.552;7.632;2023-05-14T19:46:22;14.50;99.90
16060;DHT22;8134;49.552;7.632;2023-05-14T19:48:47;14.40;99.90
16060;DHT22;8134;49.552;7.632;2023-05-14T19:51:13;14.40;99.90
16060;DHT22;8134;49.552;7.632;2023-05-14T19:53:38;14.40;99.90
16060;DHT22;8134;49.552;7.632;2023-05-14T19:56:04;14.40;99.90
16060;DHT22;8134;49.552;7.632;2023-05-14T19:58:29;14.40;99.90
16060;DHT22;8134;49.552;7.632;2023-05-14T20:00:55;14.40;99.90
16060;DHT22;8134;49.552;7.632;2023-05-14T20:03:22;14.40;99.90
16060;DHT22;8134;49.552;7.632;2023-05-14T20:05:50;14.40;99.90
16060;DHT22;8134;49.552;7.632;2023-05-14T20:08:16;14.40;99.90
16060;DHT22;8134;49.552;7.632;2023-05-14T20:10:43;14.40;99.90
16060;DHT22;8134;49.552;7.632;2023-05-14T20:13:08;14.40;99.90
16060;DHT22;8134;49.552;7.632;2023-05-14T20:15:34;14.30;99.90
16060;DHT22;8134;49.552;7.632;2023-05-14T20:17:59;14.30;99.90
16060;DHT22;8134;49.552;7.632;2023-05-14T20:20:25;14.40;99.90
16060;DHT22;8134;49.552;7.632;2023-05-14T20:22:51;14.40;99.90
16060;DHT22;8134;49.552;7.632;2023-05-14T20:25:17;14.30;99.90
16060;DHT22;8134;49.552;7.632;2023-05-14T20:27:42;14.30;99.90
16060;DHT22;8134;49.552;7.632;2023-05-14T20:30:08;14.20;99.90
16060;DHT22;8134;49.552;7.632;2023-05-14T20:32:33;14.20;99.90
16060;DHT22;8134;49.552;7.632;2023-05-14T20:34:59;14.20;99.90
16060;DHT22;8134;49.552;7.632;2023-05-14T20:37:29;14.20;99.90
16060;DHT22;8134;49.552;7.632;2023-05-14T20:39:56;14.10;99.90
16060;DHT22;8134;49.552;7.632;2023-05-14T20:42:22;14.00;99.90
16060;DHT22;8134;49.552;7.632;2023-05-14T20:44:48;14.00;99.90
16060;DHT22;8134;49.552;7.632;2023-05-14T20:47:15;14.00;99.90
16060;DHT22;8134;49.552;7.632;2023-05-14T20:49:45;14.00;99.90
16060;DHT22;8134;49.552;7.632;2023-05-14T20:52:14;13.90;99.90
16060;DHT22;8134;49.552;7.632;2023-05-14T20:54:40;13.80;99.90
16060;DHT22;8134;49.552;7.632;2023-05-14T20:57:05;13.70;99.90
16060;DHT22;8134;49.552;7.632;2023-05-14T20:59:31;13.80;99.90
16060;DHT22;8134;49.552;7.632;2023-05-14T21:01:56;13.80;99.90
16060;DHT22;8134;49.552;7.632;2023-05-14T21:04:22;13.70;99.90
16060;DHT22;8134;49.552;7.632;2023-05-14T21:06:47;13.70;99.90
16060;DHT22;8134;49.552;7.632;2023-05-14T21:09:13;13.70;99.90
16060;DHT22;8134;49.552;7.632;2023-05-14T21:11:38;13.70;99.90
16060;DHT22;8134;49.552;7.632;2023-05-14T21:14:04;13.70;99.90
